Time;durP1;ratioP1;P1;durP2;ratioP2;P2;SDS_P1;SDS_P2;PMS_P1;PMS_P2;Temp;Humidity;BMP_temperature;BMP_pressure;BME280_temperature;BME280_humidity;BME280_pressure;Samples;Min_cycle;Max_cycle;Signal;HPM_P1;HPM_P2
2023/12/08 00:00:26;;;;;;;143.90;71.50;;;;;;;;;;106680;1256;59205;-80
2023/12/08 00:03:13;;;;;;;164.10;74.00;;;;;;;;;;106887;1251;59826;-79
2023/12/08 00:05:39;;;;;;;146.60;66.70;;;;;;;;;;106853;1253;59771;-79
2023/12/08 00:08:06;;;;;;;154.00;69.60;;;;;;;;;;107182;1252;61674;-79
2023/12/08 00:10:32;;;;;;;156.80;69.30;;;;;;;;;;107627;1256;59159;-79
2023/12/08 00:12:59;;;;;;;163.80;73.90;;;;;;;;;;106882;1255;59836;-79
2023/12/08 00:15:25;;;;;;;182.00;80.40;;;;;;;;;;106826;1255;59809;-79
2023/12/08 00:17:52;;;;;;;188.80;87.70;;;;;;;;;;106914;1255;59178;-79
2023/12/08 00:20:18;;;;;;;193.40;85.00;;;;;;;;;;109477;1253;59138;-79
2023/12/08 00:22:45;;;;;;;164.00;79.30;;;;;;;;;;109536;1251;58833;-80
2023/12/08 00:25:11;;;;;;;191.40;87.40;;;;;;;;;;109114;1251;60866;-79
2023/12/08 00:27:38;;;;;;;181.90;81.90;;;;;;;;;;106976;1251;61140;-79
2023/12/08 00:30:05;;;;;;;184.90;84.80;;;;;;;;;;107044;1255;59080;-79
2023/12/08 00:32:31;;;;;;;183.20;82.40;;;;;;;;;;107031;1254;61579;-79
2023/12/08 00:34:58;;;;;;;188.00;80.50;;;;;;;;;;107035;1254;59824;-79
2023/12/08 00:37:25;;;;;;;185.50;82.20;;;;;;;;;;106998;1251;59755;-79
2023/12/08 00:39:52;;;;;;;186.50;85.60;;;;;;;;;;106958;1256;61892;-80
2023/12/08 00:42:18;;;;;;;181.30;81.20;;;;;;;;;;107044;1255;59755;-79
2023/12/08 00:44:45;;;;;;;180.50;78.40;;;;;;;;;;106937;1257;60759;-79
2023/12/08 00:47:11;;;;;;;193.60;85.70;;;;;;;;;;107017;1251;60800;-79
2023/12/08 00:49:37;;;;;;;173.90;79.60;;;;;;;;;;107009;1254;59889;-79
2023/12/08 00:52:04;;;;;;;175.60;77.10;;;;;;;;;;107003;1251;59741;-79
2023/12/08 00:54:31;;;;;;;158.00;75.40;;;;;;;;;;106929;1252;59806;-79
2023/12/08 00:56:57;;;;;;;172.80;77.70;;;;;;;;;;106843;1255;59743;-80
2023/12/08 00:59:24;;;;;;;185.50;83.50;;;;;;;;;;107000;1254;59907;-80
2023/12/08 01:01:50;;;;;;;187.00;79.00;;;;;;;;;;106856;1256;60828;-79
2023/12/08 01:04:16;;;;;;;190.40;85.20;;;;;;;;;;106828;1257;59783;-79
2023/12/08 01:06:43;;;;;;;193.50;84.90;;;;;;;;;;106890;1256;59802;-79
2023/12/08 01:09:10;;;;;;;176.80;84.60;;;;;;;;;;106917;1252;59751;-79
2023/12/08 01:11:37;;;;;;;191.10;88.10;;;;;;;;;;106919;1253;59827;-79
2023/12/08 01:14:03;;;;;;;200.00;87.70;;;;;;;;;;106958;1256;60876;-79
2023/12/08 01:16:29;;;;;;;206.70;95.70;;;;;;;;;;106884;1251;60806;-79
2023/12/08 01:18:56;;;;;;;200.30;89.80;;;;;;;;;;106899;1251;59693;-79
2023/12/08 01:21:22;;;;;;;204.10;89.00;;;;;;;;;;106935;1251;59682;-79
2023/12/08 01:23:49;;;;;;;184.30;90.00;;;;;;;;;;107023;1251;59789;-79
2023/12/08 01:26:15;;;;;;;173.60;82.00;;;;;;;;;;107008;1254;59900;-80
2023/12/08 01:28:42;;;;;;;173.80;80.40;;;;;;;;;;106989;1255;60901;-79
2023/12/08 01:31:08;;;;;;;179.10;84.40;;;;;;;;;;106998;1254;59854;-79
2023/12/08 01:33:35;;;;;;;176.80;78.40;;;;;;;;;;107012;1251;59702;-79
2023/12/08 01:36:02;;;;;;;169.60;81.40;;;;;;;;;;107054;1251;60997;-79
2023/12/08 01:38:30;;;;;;;174.10;78.60;;;;;;;;;;107083;1251;59660;-79
2023/12/08 01:40:56;;;;;;;175.90;78.90;;;;;;;;;;107000;1250;62125;-79
2023/12/08 01:43:23;;;;;;;174.00;80.30;;;;;;;;;;106994;1251;62001;-79
2023/12/08 01:45:49;;;;;;;168.50;77.40;;;;;;;;;;106908;1251;59754;-79
2023/12/08 01:48:16;;;;;;;163.80;72.70;;;;;;;;;;107019;1251;60896;-79
2023/12/08 01:50:42;;;;;;;175.30;80.00;;;;;;;;;;107062;1251;60914;-79
2023/12/08 01:53:09;;;;;;;182.00;84.90;;;;;;;;;;106975;1254;60875;-79
2023/12/08 01:55:35;;;;;;;177.50;81.90;;;;;;;;;;106927;1255;59876;-79
2023/12/08 01:58:02;;;;;;;184.60;83.80;;;;;;;;;;106915;1256;60847;-79
2023/12/08 02:00:29;;;;;;;183.50;88.60;;;;;;;;;;106930;1252;60884;-79
2023/12/08 02:02:55;;;;;;;187.50;87.40;;;;;;;;;;106829;1256;60829;-80
2023/12/08 02:05:22;;;;;;;176.40;75.90;;;;;;;;;;106836;1254;60945;-79
2023/12/08 02:07:48;;;;;;;150.70;70.40;;;;;;;;;;106894;1251;59761;-79
2023/12/08 02:10:15;;;;;;;161.30;75.00;;;;;;;;;;106894;1254;59882;-79
2023/12/08 02:12:41;;;;;;;155.90;72.10;;;;;;;;;;106959;1255;60969;-80
2023/12/08 02:15:08;;;;;;;171.20;77.80;;;;;;;;;;106963;1257;60890;-80
2023/12/08 02:17:38;;;;;;;168.20;83.90;;;;;;;;;;106791;1254;59251;-79
2023/12/08 02:20:09;;;;;;;167.80;81.00;;;;;;;;;;106874;1254;62000;-79
2023/12/08 02:22:36;;;;;;;165.70;77.90;;;;;;;;;;107633;1250;63002;-79
2023/12/08 02:25:02;;;;;;;165.30;75.60;;;;;;;;;;106954;1251;59835;-79
2023/12/08 02:27:29;;;;;;;168.70;75.40;;;;;;;;;;106991;1254;59879;-79
2023/12/08 02:29:55;;;;;;;158.30;72.30;;;;;;;;;;106999;1251;59479;-80
2023/12/08 02:32:31;;;;;;;164.40;72.60;;;;;;;;;;107067;1251;59913;-79
2023/12/08 02:35:01;;;;;;;158.90;70.40;;;;;;;;;;107058;1251;61725;-80
2023/12/08 02:37:28;;;;;;;170.40;76.80;;;;;;;;;;107035;1251;59765;-79
2023/12/08 02:39:54;;;;;;;161.30;76.40;;;;;;;;;;106993;1251;59883;-79
2023/12/08 02:42:20;;;;;;;154.10;72.60;;;;;;;;;;107018;1251;60866;-79
2023/12/08 02:44:47;;;;;;;149.10;68.20;;;;;;;;;;107087;1251;59722;-80
2023/12/08 02:47:13;;;;;;;157.20;72.60;;;;;;;;;;107053;1251;61900;-79
2023/12/08 02:49:40;;;;;;;168.70;76.70;;;;;;;;;;107014;1251;59818;-79
2023/12/08 02:52:06;;;;;;;169.90;68.90;;;;;;;;;;106960;1251;59851;-79
2023/12/08 02:54:32;;;;;;;159.60;70.20;;;;;;;;;;106923;1254;60822;-80
2023/12/08 02:56:59;;;;;;;144.40;65.10;;;;;;;;;;106981;1255;59540;-79
2023/12/08 02:59:25;;;;;;;161.30;73.80;;;;;;;;;;106887;1254;60926;-79
2023/12/08 03:01:52;;;;;;;163.80;71.30;;;;;;;;;;106900;1255;60998;-80
2023/12/08 03:04:18;;;;;;;155.20;73.70;;;;;;;;;;106972;1254;60957;-79
2023/12/08 03:06:45;;;;;;;165.10;69.80;;;;;;;;;;106905;1256;59519;-79
2023/12/08 03:09:11;;;;;;;158.40;70.30;;;;;;;;;;109039;1252;59087;-80
2023/12/08 03:11:37;;;;;;;158.20;68.60;;;;;;;;;;109496;1252;59069;-79
2023/12/08 03:14:04;;;;;;;147.20;69.00;;;;;;;;;;109481;1253;59100;-79
2023/12/08 03:16:31;;;;;;;138.30;64.70;;;;;;;;;;109492;1252;59055;-79
2023/12/08 03:18:57;;;;;;;131.70;65.70;;;;;;;;;;109438;1253;58925;-80
2023/12/08 03:21:23;;;;;;;136.00;59.70;;;;;;;;;;109492;1251;58992;-79
2023/12/08 03:23:50;;;;;;;138.10;64.50;;;;;;;;;;109515;1250;59013;-79
2023/12/08 03:26:17;;;;;;;155.30;68.40;;;;;;;;;;109560;1250;58948;-79
2023/12/08 03:28:44;;;;;;;146.10;66.50;;;;;;;;;;107646;1251;60808;-79
2023/12/08 03:31:23;;;;;;;154.40;71.50;;;;;;;;;;107103;1251;59793;-79
2023/12/08 03:33:49;;;;;;;165.40;72.40;;;;;;;;;;108731;1251;60842;-79
2023/12/08 03:36:16;;;;;;;155.90;64.20;;;;;;;;;;107555;1251;61986;-79
2023/12/08 03:38:42;;;;;;;137.20;60.40;;;;;;;;;;107185;1251;60672;-79
2023/12/08 03:41:09;;;;;;;147.30;64.80;;;;;;;;;;108222;1251;59072;-78
2023/12/08 03:43:36;;;;;;;155.60;66.80;;;;;;;;;;107923;1251;59780;-79
2023/12/08 03:46:02;;;;;;;161.70;71.70;;;;;;;;;;108006;1251;59663;-79
2023/12/08 03:48:29;;;;;;;154.80;69.40;;;;;;;;;;108117;1251;59756;-79
2023/12/08 03:50:55;;;;;;;160.20;68.00;;;;;;;;;;108304;1251;59807;-79
2023/12/08 03:53:23;;;;;;;157.70;66.30;;;;;;;;;;108525;1251;59381;-79
2023/12/08 03:55:49;;;;;;;138.50;62.30;;;;;;;;;;109481;1251;59091;-79
2023/12/08 03:58:16;;;;;;;142.10;66.30;;;;;;;;;;108423;1251;59669;-79
2023/12/08 04:00:42;;;;;;;132.40;61.50;;;;;;;;;;108490;1251;59734;-79
2023/12/08 04:03:09;;;;;;;132.60;56.60;;;;;;;;;;108383;1250;59574;-80
2023/12/08 04:05:35;;;;;;;146.40;60.90;;;;;;;;;;108486;1254;59364;-79
2023/12/08 04:08:05;;;;;;;129.40;54.70;;;;;;;;;;108433;1250;59383;-79
2023/12/08 04:10:31;;;;;;;121.60;54.00;;;;;;;;;;107613;1251;59746;-79
2023/12/08 04:12:58;;;;;;;108.20;50.70;;;;;;;;;;108271;1251;59677;-79
2023/12/08 04:15:24;;;;;;;123.60;55.20;;;;;;;;;;109526;1251;59084;-79
2023/12/08 04:17:51;;;;;;;113.60;49.80;;;;;;;;;;108161;1251;60168;-79
2023/12/08 04:20:18;;;;;;;118.40;53.00;;;;;;;;;;108184;1251;59950;-79
2023/12/08 04:22:44;;;;;;;113.90;51.60;;;;;;;;;;107064;1251;60914;-79
2023/12/08 04:25:14;;;;;;;117.30;50.30;;;;;;;;;;107001;1251;61616;-79
2023/12/08 04:27:40;;;;;;;106.80;47.00;;;;;;;;;;107071;1256;60816;-79
2023/12/08 04:30:07;;;;;;;118.50;53.80;;;;;;;;;;106987;1251;60810;-79
2023/12/08 04:32:34;;;;;;;128.80;54.00;;;;;;;;;;107037;1254;60292;-79
2023/12/08 04:35:00;;;;;;;125.40;57.30;;;;;;;;;;107006;1253;60865;-79
2023/12/08 04:37:27;;;;;;;117.80;50.00;;;;;;;;;;106976;1251;59309;-80
2023/12/08 04:39:53;;;;;;;119.80;53.60;;;;;;;;;;106943;1251;59667;-80
2023/12/08 04:42:20;;;;;;;142.10;60.20;;;;;;;;;;107021;1251;59839;-80
2023/12/08 04:44:46;;;;;;;123.50;55.30;;;;;;;;;;106932;1251;59855;-79
2023/12/08 04:47:13;;;;;;;124.90;54.00;;;;;;;;;;107026;1250;60833;-79
2023/12/08 04:49:39;;;;;;;136.20;60.10;;;;;;;;;;107138;1251;62710;-79
2023/12/08 04:52:06;;;;;;;123.30;57.20;;;;;;;;;;107039;1251;59229;-79
2023/12/08 04:54:32;;;;;;;135.90;59.50;;;;;;;;;;106978;1251;59711;-79
2023/12/08 04:56:59;;;;;;;143.90;62.40;;;;;;;;;;107355;1251;59771;-79
2023/12/08 04:59:25;;;;;;;144.60;57.50;;;;;;;;;;107217;1253;60869;-79
2023/12/08 05:01:52;;;;;;;138.00;59.70;;;;;;;;;;106928;1252;60745;-79
2023/12/08 05:04:18;;;;;;;139.70;63.60;;;;;;;;;;107008;1252;59860;-79
2023/12/08 05:06:48;;;;;;;133.80;59.10;;;;;;;;;;106995;1251;60442;-79
2023/12/08 05:09:14;;;;;;;147.20;59.50;;;;;;;;;;107002;1253;60963;-79
2023/12/08 05:11:41;;;;;;;150.10;63.40;;;;;;;;;;106930;1251;59155;-79
2023/12/08 05:14:07;;;;;;;145.70;61.10;;;;;;;;;;106979;1255;60849;-79
2023/12/08 05:16:34;;;;;;;140.20;62.90;;;;;;;;;;106913;1254;60740;-79
2023/12/08 05:19:00;;;;;;;150.60;68.30;;;;;;;;;;106917;1251;59815;-79
2023/12/08 05:21:27;;;;;;;156.10;63.20;;;;;;;;;;106844;1251;59676;-79
2023/12/08 05:23:54;;;;;;;155.10;67.10;;;;;;;;;;106997;1251;60921;-79
2023/12/08 05:26:20;;;;;;;145.10;64.80;;;;;;;;;;106965;1251;62838;-79
2023/12/08 05:28:47;;;;;;;138.40;59.80;;;;;;;;;;106910;1251;60622;-79
2023/12/08 05:31:13;;;;;;;160.10;68.40;;;;;;;;;;107081;1250;59751;-79
2023/12/08 05:33:40;;;;;;;162.00;66.70;;;;;;;;;;106986;1251;59840;-79
2023/12/08 05:36:06;;;;;;;134.90;56.10;;;;;;;;;;106979;1252;59916;-79
2023/12/08 05:38:33;;;;;;;147.70;62.30;;;;;;;;;;106950;1253;61766;-79
2023/12/08 05:41:00;;;;;;;144.10;61.20;;;;;;;;;;107002;1251;62083;-79
2023/12/08 05:43:26;;;;;;;131.90;56.40;;;;;;;;;;106928;1251;59847;-79
2023/12/08 05:45:53;;;;;;;129.30;51.70;;;;;;;;;;106943;1251;61291;-79
2023/12/08 05:48:20;;;;;;;129.90;55.40;;;;;;;;;;106961;1251;59728;-79
2023/12/08 05:50:47;;;;;;;138.00;53.90;;;;;;;;;;106901;1251;62929;-79
2023/12/08 05:53:13;;;;;;;122.50;50.50;;;;;;;;;;106956;1251;59781;-79
2023/12/08 05:55:40;;;;;;;119.20;51.60;;;;;;;;;;107076;1253;60716;-81
2023/12/08 05:58:06;;;;;;;129.00;55.00;;;;;;;;;;106913;1251;59760;-79
2023/12/08 06:00:33;;;;;;;118.70;52.70;;;;;;;;;;106989;1251;59833;-81
2023/12/08 06:02:59;;;;;;;121.70;50.40;;;;;;;;;;107484;1252;59183;-81
2023/12/08 06:05:26;;;;;;;140.30;53.80;;;;;;;;;;107513;1251;59754;-81
2023/12/08 06:07:52;;;;;;;118.80;50.60;;;;;;;;;;107466;1255;60680;-82
2023/12/08 06:10:19;;;;;;;134.30;55.70;;;;;;;;;;107599;1251;60081;-81
2023/12/08 06:12:46;;;;;;;115.70;53.50;;;;;;;;;;107698;1251;59780;-82
2023/12/08 06:15:12;;;;;;;135.40;54.20;;;;;;;;;;107739;1251;61424;-82
2023/12/08 06:17:39;;;;;;;128.20;55.90;;;;;;;;;;107579;1250;61213;-82
2023/12/08 06:20:08;;;;;;;135.50;57.30;;;;;;;;;;107598;1251;61073;-82
2023/12/08 06:22:35;;;;;;;129.50;55.40;;;;;;;;;;107625;1251;60746;-82
2023/12/08 06:25:03;;;;;;;115.60;45.30;;;;;;;;;;107410;1253;59749;-81
2023/12/08 06:27:29;;;;;;;104.40;47.80;;;;;;;;;;107509;1252;61673;-82
2023/12/08 06:29:56;;;;;;;125.10;52.80;;;;;;;;;;107573;1251;59341;-81
2023/12/08 06:32:25;;;;;;;112.70;52.10;;;;;;;;;;107461;1254;167520;-82
2023/12/08 06:34:51;;;;;;;120.00;54.20;;;;;;;;;;107639;1253;59687;-82
2023/12/08 06:37:18;;;;;;;127.50;53.80;;;;;;;;;;108282;1251;59680;-82
2023/12/08 06:39:44;;;;;;;116.80;50.50;;;;;;;;;;109504;1251;58917;-81
2023/12/08 06:42:11;;;;;;;126.10;55.20;;;;;;;;;;109563;1250;58881;-82
2023/12/08 06:44:38;;;;;;;136.80;54.70;;;;;;;;;;109517;1251;59144;-82
2023/12/08 06:47:04;;;;;;;123.90;53.10;;;;;;;;;;109576;1251;59283;-82
2023/12/08 06:49:31;;;;;;;122.00;48.70;;;;;;;;;;109556;1251;58953;-82
2023/12/08 06:51:57;;;;;;;109.50;51.90;;;;;;;;;;109541;1254;60384;-82
2023/12/08 06:54:24;;;;;;;112.00;47.00;;;;;;;;;;109638;1251;59130;-82
2023/12/08 06:56:50;;;;;;;95.10;41.70;;;;;;;;;;109622;1250;58922;-81
2023/12/08 06:59:17;;;;;;;108.50;47.70;;;;;;;;;;109521;1251;58939;-81
2023/12/08 07:01:43;;;;;;;113.60;49.40;;;;;;;;;;109587;1251;58778;-82
2023/12/08 07:04:10;;;;;;;110.20;48.20;;;;;;;;;;107899;1251;61310;-81
2023/12/08 07:06:37;;;;;;;123.00;51.50;;;;;;;;;;107654;1251;62128;-81
2023/12/08 07:09:04;;;;;;;130.90;55.00;;;;;;;;;;107498;1251;61677;-82
2023/12/08 07:11:30;;;;;;;167.40;71.40;;;;;;;;;;107744;1249;59813;-81
2023/12/08 07:13:57;;;;;;;187.20;82.10;;;;;;;;;;107781;1251;59128;-82
2023/12/08 07:16:24;;;;;;;168.60;72.70;;;;;;;;;;107773;1251;62011;-82
2023/12/08 07:18:50;;;;;;;146.20;68.60;;;;;;;;;;107797;1251;59544;-82
2023/12/08 07:21:16;;;;;;;118.20;56.60;;;;;;;;;;107962;1251;59959;-82
2023/12/08 07:23:43;;;;;;;140.60;64.00;;;;;;;;;;107849;1249;59867;-82
2023/12/08 07:26:10;;;;;;;147.70;69.00;;;;;;;;;;107853;1249;59653;-82
2023/12/08 07:28:37;;;;;;;143.90;66.40;;;;;;;;;;108079;1251;60794;-82
2023/12/08 07:31:03;;;;;;;157.70;70.90;;;;;;;;;;108130;1251;59390;-82
2023/12/08 07:33:30;;;;;;;158.20;73.10;;;;;;;;;;107903;1251;59710;-82
2023/12/08 07:35:57;;;;;;;137.30;59.00;;;;;;;;;;107757;1251;60950;-81
2023/12/08 07:38:23;;;;;;;117.00;53.10;;;;;;;;;;107799;1251;59847;-82
2023/12/08 07:40:50;;;;;;;152.20;64.70;;;;;;;;;;108030;1251;59834;-82
2023/12/08 07:43:16;;;;;;;148.40;67.10;;;;;;;;;;108138;1251;59812;-81
2023/12/08 07:45:43;;;;;;;145.20;65.60;;;;;;;;;;107864;1251;60869;-82
2023/12/08 07:48:09;;;;;;;134.40;63.50;;;;;;;;;;107810;1251;59814;-81
2023/12/08 07:50:36;;;;;;;122.70;59.30;;;;;;;;;;107956;1250;61723;-82
2023/12/08 07:53:02;;;;;;;139.90;64.50;;;;;;;;;;107809;1251;59775;-82
2023/12/08 07:55:29;;;;;;;154.60;72.90;;;;;;;;;;107770;1251;60927;-82
2023/12/08 07:57:56;;;;;;;161.30;73.40;;;;;;;;;;107509;1251;61922;-82
2023/12/08 08:00:23;;;;;;;162.40;79.40;;;;;;;;;;107805;1251;59747;-82
2023/12/08 08:02:49;;;;;;;148.20;72.50;;;;;;;;;;107808;1250;59473;-81
2023/12/08 08:05:16;;;;;;;152.70;75.50;;;;;;;;;;107736;1251;61792;-81
2023/12/08 08:07:42;;;;;;;158.00;75.20;;;;;;;;;;107822;1251;60730;-82
2023/12/08 08:10:09;;;;;;;173.00;79.80;;;;;;;;;;107893;1250;61750;-83
2023/12/08 08:12:35;;;;;;;180.30;88.30;;;;;;;;;;107845;1251;59283;-81
2023/12/08 08:15:02;;;;;;;195.30;96.50;;;;;;;;;;107883;1249;59397;-82
2023/12/08 08:17:29;;;;;;;179.50;82.80;;;;;;;;;;107752;1251;60323;-82
2023/12/08 08:19:55;;;;;;;133.00;64.50;;;;;;;;;;107884;1251;59680;-81
2023/12/08 08:22:21;;;;;;;130.60;61.10;;;;;;;;;;108043;1251;59185;-82
2023/12/08 08:24:48;;;;;;;122.10;54.70;;;;;;;;;;107882;1251;59835;-82
2023/12/08 08:27:14;;;;;;;112.20;49.70;;;;;;;;;;107791;1251;61173;-82
2023/12/08 08:29:41;;;;;;;125.40;60.60;;;;;;;;;;107795;1251;61001;-79
2023/12/08 08:32:07;;;;;;;103.90;46.20;;;;;;;;;;107458;1251;59832;-79
2023/12/08 08:34:35;;;;;;;160.60;70.50;;;;;;;;;;107143;1251;59803;-78
2023/12/08 08:37:02;;;;;;;185.90;87.70;;;;;;;;;;108797;1250;59293;-79
2023/12/08 08:39:28;;;;;;;135.70;59.30;;;;;;;;;;109495;1251;58917;-79
2023/12/08 08:41:55;;;;;;;188.10;74.70;;;;;;;;;;109513;1251;59106;-80
2023/12/08 08:44:22;;;;;;;461.70;189.80;;;;;;;;;;108092;1251;59893;-79
2023/12/08 08:46:48;;;;;;;407.50;158.80;;;;;;;;;;107108;1251;59682;-79
2023/12/08 08:49:15;;;;;;;414.40;160.00;;;;;;;;;;107227;1251;60915;-79
2023/12/08 08:51:43;;;;;;;427.50;166.10;;;;;;;;;;108867;1251;59128;-79
2023/12/08 08:54:10;;;;;;;414.60;158.30;;;;;;;;;;109496;1251;61970;-81
2023/12/08 08:56:36;;;;;;;524.50;226.80;;;;;;;;;;109520;1252;58961;-82
2023/12/08 08:59:03;;;;;;;535.70;228.10;;;;;;;;;;109525;1250;59783;-81
2023/12/08 09:01:30;;;;;;;588.60;254.90;;;;;;;;;;109412;1251;60330;-82
2023/12/08 09:03:56;;;;;;;264.50;124.30;;;;;;;;;;109504;1251;58940;-82
2023/12/08 09:06:24;;;;;;;190.30;90.80;;;;;;;;;;109495;1251;59494;-82
2023/12/08 09:08:51;;;;;;;220.90;99.80;;;;;;;;;;109525;1251;59598;-82
2023/12/08 09:11:17;;;;;;;219.60;106.30;;;;;;;;;;109512;1251;60964;-79
2023/12/08 09:13:44;;;;;;;252.40;116.70;;;;;;;;;;109503;1250;60087;-80
2023/12/08 09:16:10;;;;;;;225.60;110.10;;;;;;;;;;109501;1251;58958;-79
2023/12/08 09:18:37;;;;;;;176.30;85.70;;;;;;;;;;109555;1251;58916;-79
2023/12/08 09:21:05;;;;;;;177.30;80.00;;;;;;;;;;107512;1254;60931;-78
2023/12/08 09:23:31;;;;;;;173.20;85.30;;;;;;;;;;107356;1251;60375;-79
2023/12/08 09:25:59;;;;;;;164.10;77.80;;;;;;;;;;107146;1251;59824;-79
2023/12/08 09:28:25;;;;;;;129.50;57.50;;;;;;;;;;107250;1250;60843;-79
2023/12/08 09:30:52;;;;;;;140.80;68.20;;;;;;;;;;107301;1251;61147;-79
2023/12/08 09:33:19;;;;;;;148.50;67.20;;;;;;;;;;107272;1251;60741;-79
2023/12/08 09:35:45;;;;;;;109.40;51.30;;;;;;;;;;107171;1251;60958;-79
2023/12/08 09:38:12;;;;;;;128.10;59.10;;;;;;;;;;107226;1251;60795;-79
2023/12/08 09:40:40;;;;;;;135.50;64.20;;;;;;;;;;107312;1251;62130;-79
2023/12/08 09:43:17;;;;;;;141.70;65.20;;;;;;;;;;107359;1249;62760;-79
2023/12/08 09:45:43;;;;;;;128.00;61.90;;;;;;;;;;107216;1251;60882;-79
2023/12/08 09:48:10;;;;;;;128.10;61.90;;;;;;;;;;107350;1251;62102;-80
2023/12/08 09:50:37;;;;;;;157.10;74.60;;;;;;;;;;107332;1251;59750;-79
2023/12/08 09:53:04;;;;;;;193.20;88.50;;;;;;;;;;107388;1251;59042;-79
2023/12/08 09:55:31;;;;;;;175.00;83.00;;;;;;;;;;107250;1251;62112;-79
2023/12/08 09:57:58;;;;;;;131.30;69.20;;;;;;;;;;107262;1251;59807;-79
2023/12/08 10:00:25;;;;;;;126.40;65.70;;;;;;;;;;107368;1251;59782;-79
2023/12/08 10:02:51;;;;;;;127.40;69.80;;;;;;;;;;107486;1251;61079;-79
2023/12/08 10:05:20;;;;;;;123.40;65.10;;;;;;;;;;107284;1251;61849;-79
2023/12/08 10:07:48;;;;;;;125.50;63.20;;;;;;;;;;107256;1254;63105;-80
2023/12/08 10:10:15;;;;;;;134.70;63.10;;;;;;;;;;107055;1251;59735;-79
2023/12/08 10:12:41;;;;;;;134.20;65.40;;;;;;;;;;107123;1250;61248;-81
2023/12/08 10:15:09;;;;;;;124.70;60.50;;;;;;;;;;107104;1253;60804;-80
2023/12/08 10:17:42;;;;;;;100.70;51.40;;;;;;;;;;107050;1251;60752;-80
2023/12/08 10:20:10;;;;;;;93.70;45.20;;;;;;;;;;107848;1252;61968;-80
2023/12/08 10:23:02;;;;;;;108.90;52.80;;;;;;;;;;107332;1250;60947;-80
2023/12/08 10:25:29;;;;;;;113.10;54.40;;;;;;;;;;107066;1251;60936;-81
2023/12/08 10:27:56;;;;;;;117.10;55.60;;;;;;;;;;107003;1251;61991;-80
2023/12/08 10:30:23;;;;;;;118.50;58.50;;;;;;;;;;107241;1251;60833;-81
2023/12/08 10:32:50;;;;;;;132.10;60.30;;;;;;;;;;107143;1251;62976;-81
2023/12/08 10:35:16;;;;;;;174.10;81.80;;;;;;;;;;107020;1253;59036;-81
2023/12/08 10:37:43;;;;;;;115.70;56.60;;;;;;;;;;106938;1251;59844;-80
2023/12/08 10:40:10;;;;;;;118.30;55.60;;;;;;;;;;106971;1251;60805;-80
2023/12/08 10:42:37;;;;;;;107.60;54.40;;;;;;;;;;106981;1250;59976;-80
2023/12/08 10:45:13;;;;;;;89.20;45.30;;;;;;;;;;107019;1251;61000;-80
2023/12/08 10:47:40;;;;;;;90.00;41.30;;;;;;;;;;107215;1251;60858;-80
2023/12/08 10:50:07;;;;;;;62.10;32.60;;;;;;;;;;107601;1253;60966;-81
2023/12/08 10:52:33;;;;;;;81.80;42.10;;;;;;;;;;108521;1251;59341;-80
2023/12/08 10:55:00;;;;;;;66.60;32.80;;;;;;;;;;108173;1251;61930;-80
2023/12/08 10:57:27;;;;;;;70.00;33.10;;;;;;;;;;107075;1250;62170;-80
2023/12/08 10:59:53;;;;;;;70.90;34.10;;;;;;;;;;106981;1251;60671;-80
2023/12/08 11:02:24;;;;;;;66.30;33.50;;;;;;;;;;107182;1251;59829;-79
2023/12/08 11:04:53;;;;;;;68.80;35.20;;;;;;;;;;107230;1250;60918;-80
2023/12/08 11:07:22;;;;;;;57.80;30.90;;;;;;;;;;107220;1251;59812;-80
2023/12/08 11:09:48;;;;;;;64.00;32.90;;;;;;;;;;107083;1251;61911;-81
2023/12/08 11:12:15;;;;;;;67.30;34.30;;;;;;;;;;107038;1251;59797;-80
2023/12/08 11:14:42;;;;;;;54.80;27.90;;;;;;;;;;107341;1251;59813;-80
2023/12/08 11:17:10;;;;;;;51.30;25.40;;;;;;;;;;106989;1251;59707;-80
2023/12/08 11:19:36;;;;;;;58.90;30.00;;;;;;;;;;106996;1254;59930;-80
2023/12/08 11:22:03;;;;;;;63.70;27.80;;;;;;;;;;107030;1253;61618;-80
2023/12/08 11:24:29;;;;;;;70.80;32.00;;;;;;;;;;107043;1251;59970;-80
2023/12/08 11:27:11;;;;;;;67.70;32.80;;;;;;;;;;107093;1251;60528;-80
2023/12/08 11:29:46;;;;;;;67.10;31.90;;;;;;;;;;107049;1251;59734;-80
2023/12/08 11:32:15;;;;;;;68.90;37.30;;;;;;;;;;107068;1250;59723;-80
2023/12/08 11:34:42;;;;;;;;;;;;;;;;;;106908;1254;63021;-80
2023/12/08 11:37:08;;;;;;;56.80;28.80;;;;;;;;;;107118;1251;61974;-80
2023/12/08 11:39:38;;;;;;;60.20;31.30;;;;;;;;;;106971;1251;61991;-80
2023/12/08 11:42:06;;;;;;;68.80;33.10;;;;;;;;;;107702;1251;59889;-81
2023/12/08 11:44:32;;;;;;;61.90;30.60;;;;;;;;;;107044;1250;60962;-81
2023/12/08 11:47:02;;;;;;;56.30;27.10;;;;;;;;;;107510;1254;62369;-80
2023/12/08 11:49:29;;;;;;;57.10;31.30;;;;;;;;;;106886;1254;60894;-80
2023/12/08 11:52:11;;;;;;;53.00;27.70;;;;;;;;;;107118;1251;59796;-80
2023/12/08 11:54:58;;;;;;;65.30;32.40;;;;;;;;;;107015;1254;61165;-79
2023/12/08 11:57:24;;;;;;;63.20;33.50;;;;;;;;;;107267;1253;59655;-81
2023/12/08 11:59:51;;;;;;;59.00;32.40;;;;;;;;;;107222;1251;63269;-80
2023/12/08 12:02:17;;;;;;;59.70;31.00;;;;;;;;;;107272;1251;60152;-80
2023/12/08 12:04:44;;;;;;;58.00;27.50;;;;;;;;;;107254;1251;59725;-80
2023/12/08 12:07:10;;;;;;;57.20;28.30;;;;;;;;;;107318;1251;60733;-80
2023/12/08 12:09:37;;;;;;;66.70;32.40;;;;;;;;;;107312;1252;59764;-80
2023/12/08 12:12:12;;;;;;;110.30;50.90;;;;;;;;;;107398;1251;60801;-80
2023/12/08 12:14:42;;;;;;;116.90;57.10;;;;;;;;;;107321;1253;60867;-80
2023/12/08 12:17:12;;;;;;;104.60;52.40;;;;;;;;;;107210;1251;59704;-80
2023/12/08 12:19:39;;;;;;;80.90;37.80;;;;;;;;;;107002;1253;59803;-81
2023/12/08 12:22:05;;;;;;;77.70;36.50;;;;;;;;;;107163;1253;59535;-81
2023/12/08 12:24:33;;;;;;;80.20;40.60;;;;;;;;;;107154;1251;59831;-80
2023/12/08 12:26:59;;;;;;;81.10;36.80;;;;;;;;;;107282;1250;59765;-81
2023/12/08 12:29:26;;;;;;;87.40;41.60;;;;;;;;;;107497;1251;60943;-81
2023/12/08 12:31:54;;;;;;;69.30;33.40;;;;;;;;;;107608;1251;59137;-81
2023/12/08 12:34:20;;;;;;;65.90;33.70;;;;;;;;;;107811;1251;59763;-81
2023/12/08 12:36:47;;;;;;;65.50;31.90;;;;;;;;;;107584;1251;59670;-80
2023/12/08 12:39:13;;;;;;;75.30;34.00;;;;;;;;;;107455;1251;61334;-81
2023/12/08 12:41:40;;;;;;;64.10;32.60;;;;;;;;;;107457;1253;60903;-81
2023/12/08 12:44:06;;;;;;;75.30;33.30;;;;;;;;;;107240;1251;61081;-81
2023/12/08 12:46:33;;;;;;;74.20;36.10;;;;;;;;;;107096;1253;59784;-81
2023/12/08 12:48:59;;;;;;;88.90;40.70;;;;;;;;;;107009;1253;59855;-81
2023/12/08 12:51:32;;;;;;;73.70;37.10;;;;;;;;;;107001;1251;59898;-80
2023/12/08 12:53:59;;;;;;;78.90;37.50;;;;;;;;;;106974;1251;59815;-81
2023/12/08 12:56:26;;;;;;;77.40;40.90;;;;;;;;;;107082;1251;59956;-80
2023/12/08 12:59:02;;;;;;;70.40;37.40;;;;;;;;;;107182;1251;59777;-80
2023/12/08 13:01:29;;;;;;;70.10;36.10;;;;;;;;;;107037;1251;60995;-80
2023/12/08 13:03:56;;;;;;;68.60;35.80;;;;;;;;;;107046;1253;60129;-80
2023/12/08 13:06:27;;;;;;;252.30;114.10;;;;;;;;;;107006;1251;59755;-80
2023/12/08 13:08:54;;;;;;;121.40;62.50;;;;;;;;;;106978;1252;60836;-80
2023/12/08 13:11:20;;;;;;;95.60;47.30;;;;;;;;;;107054;1253;59796;-80
2023/12/08 13:13:47;;;;;;;121.10;56.20;;;;;;;;;;107016;1253;61653;-80
2023/12/08 13:16:13;;;;;;;114.50;54.20;;;;;;;;;;106901;1253;60204;-80
2023/12/08 13:18:43;;;;;;;149.40;67.50;;;;;;;;;;106928;1253;59865;-80
2023/12/08 13:21:10;;;;;;;160.80;74.50;;;;;;;;;;107312;1251;59842;-80
2023/12/08 13:23:36;;;;;;;194.10;85.30;;;;;;;;;;106885;1251;59194;-80
2023/12/08 13:26:04;;;;;;;185.00;86.60;;;;;;;;;;106837;1251;62107;-80
2023/12/08 13:28:31;;;;;;;221.90;95.40;;;;;;;;;;106859;1253;59496;-80
2023/12/08 13:30:58;;;;;;;214.10;97.70;;;;;;;;;;106961;1251;60853;-80
2023/12/08 13:33:25;;;;;;;207.70;97.60;;;;;;;;;;107031;1254;60142;-80
2023/12/08 13:35:52;;;;;;;201.20;84.70;;;;;;;;;;106917;1251;59752;-80
2023/12/08 13:38:21;;;;;;;163.10;77.70;;;;;;;;;;106956;1252;61864;-80
2023/12/08 13:40:48;;;;;;;147.30;69.20;;;;;;;;;;107081;1253;59819;-80
2023/12/08 13:43:15;;;;;;;181.20;82.10;;;;;;;;;;106984;1251;59750;-80
2023/12/08 13:45:41;;;;;;;172.90;78.00;;;;;;;;;;106942;1251;60826;-80
2023/12/08 13:48:08;;;;;;;161.80;78.60;;;;;;;;;;106950;1253;59461;-80
2023/12/08 13:50:37;;;;;;;175.50;76.30;;;;;;;;;;107049;1252;61077;-80
2023/12/08 13:53:03;;;;;;;165.80;73.70;;;;;;;;;;107056;1253;59768;-80